Northeast Iowa Regional Airport
KCCY : now visible

Airfield :











YOU CAN JOIN US ON...

 
LOGIN :

Register | Disclaimer

   EN    FR    IT 

 









Legend :    VFR   Marginal VFR   IFR   Intensive IFR   Very Intensive IFR
Visi :
Ceiling :
>= 8 km
>= 3000ft
5 to 8 km
1000 to 3000 ft
1500m to 5 km
500 to 1000 ft
800 to 1500m
200 to 500 ft
< 800m
< 200 ft
Symbols :   Thunderstorms  Fog  Heavy snow  Heavy precipitations  Wind > 20 kt






- Airport Elevation : 1125 ft


KCCY - Northeast Iowa Regional

CURRENT METAR :
  • 181135Z AUTO 2SM -SN BKN003 BKN007 OVC022 M02/M02 A2972 RMK AO2

EXPIRED METARs :
  • 181115Z AUTO 09045KT 2SM -SN BKN003 OVC007 M02/M02 A2972 RMK AO2
  • 181055Z AUTO 10044KT 1 3/4SM -SN OVC003 M02/M02 A2973 RMK AO2
  • 181035Z AUTO 2 1/2SM -SN OVC004 M02/M02 A2974 RMK AO2
  • 181015Z AUTO 2 1/2SM BR OVC004 M02/M02 A2974 RMK AO2
  • 180955Z AUTO 4SM BR OVC004 M02/M02 A2973 RMK AO2
  • 180935Z AUTO 3SM BR OVC004 M02/M02 A2975 RMK AO2
  • 180915Z AUTO 2SM BR OVC004 M02/M02 A2976 RMK AO2
  • 180855Z AUTO 2SM BR OVC004 M02/M02 A2978 RMK AO2 P0001

TAF N/A



MET'MAP, your aeronautical weather chart ! - Copyright ORBIFLY December 2007 - Disclaimer

ORBIFLY MET'MAP TEAM :

Programming & Development : Alexandra Zaïnal
Concept & original design : Baudouin d'Aumeries
Assistance for programming : Marc-Olivier Méhu
Technical & hardware support : Manuel Goepfert

Contact : metmap@orbifly.com




SOURCES & CREDITS :

   NOAA       Earth
Advisory